sensor_id;sensor_type;location;lat;lon;timestamp;P1;durP1;ratioP1;P2;durP2;ratioP2
32469;SDS011;18925;48.356;10.864;2022-12-18T00:00:02;165.85;;;61.83;;
32469;SDS011;18925;48.356;10.864;2022-12-18T00:00:38;153.07;;;63.30;;
32469;SDS011;18925;48.356;10.864;2022-12-18T00:01:18;157.60;;;62.00;;
32469;SDS011;18925;48.356;10.864;2022-12-18T00:01:51;159.85;;;60.75;;
32469;SDS011;18925;48.356;10.864;2022-12-18T00:02:22;156.25;;;60.75;;
32469;SDS011;18925;48.356;10.864;2022-12-18T00:02:53;163.82;;;62.65;;
32469;SDS011;18925;48.356;10.864;2022-12-18T00:03:23;169.57;;;63.75;;
32469;SDS011;18925;48.356;10.864;2022-12-18T00:03:55;161.82;;;63.17;;
32469;SDS011;18925;48.356;10.864;2022-12-18T00:04:27;156.43;;;59.50;;
32469;SDS011;18925;48.356;10.864;2022-12-18T00:04:59;165.68;;;61.70;;
32469;SDS011;18925;48.356;10.864;2022-12-18T00:05:30;151.65;;;58.35;;
32469;SDS011;18925;48.356;10.864;2022-12-18T00:06:01;153.85;;;61.80;;
32469;SDS011;18925;48.356;10.864;2022-12-18T00:06:32;150.35;;;59.78;;
32469;SDS011;18925;48.356;10.864;2022-12-18T00:07:04;146.40;;;60.40;;
32469;SDS011;18925;48.356;10.864;2022-12-18T00:07:35;149.35;;;60.53;;
32469;SDS011;18925;48.356;10.864;2022-12-18T00:08:06;143.93;;;59.92;;
32469;SDS011;18925;48.356;10.864;2022-12-18T00:08:37;149.40;;;60.85;;
32469;SDS011;18925;48.356;10.864;2022-12-18T00:09:08;153.63;;;61.20;;
32469;SDS011;18925;48.356;10.864;2022-12-18T00:09:39;138.82;;;56.85;;
32469;SDS011;18925;48.356;10.864;2022-12-18T00:10:10;140.05;;;58.38;;
32469;SDS011;18925;48.356;10.864;2022-12-18T00:10:40;136.27;;;56.53;;
32469;SDS011;18925;48.356;10.864;2022-12-18T00:11:12;133.50;;;57.58;;
32469;SDS011;18925;48.356;10.864;2022-12-18T00:11:45;145.73;;;58.65;;
32469;SDS011;18925;48.356;10.864;2022-12-18T00:12:15;149.35;;;57.70;;
32469;SDS011;18925;48.356;10.864;2022-12-18T00:12:46;146.38;;;58.42;;
32469;SDS011;18925;48.356;10.864;2022-12-18T00:13:17;131.95;;;56.83;;
32469;SDS011;18925;48.356;10.864;2022-12-18T00:13:48;140.77;;;55.80;;
32469;SDS011;18925;48.356;10.864;2022-12-18T00:14:19;137.00;;;58.00;;
32469;SDS011;18925;48.356;10.864;2022-12-18T00:14:49;146.40;;;56.67;;
32469;SDS011;18925;48.356;10.864;2022-12-18T00:15:20;144.60;;;56.33;;
32469;SDS011;18925;48.356;10.864;2022-12-18T00:15:51;152.20;;;56.53;;
32469;SDS011;18925;48.356;10.864;2022-12-18T00:16:22;141.40;;;57.78;;
32469;SDS011;18925;48.356;10.864;2022-12-18T00:16:54;149.82;;;57.60;;
32469;SDS011;18925;48.356;10.864;2022-12-18T00:17:24;136.38;;;54.58;;
32469;SDS011;18925;48.356;10.864;2022-12-18T00:17:55;128.60;;;54.97;;
32469;SDS011;18925;48.356;10.864;2022-12-18T00:18:26;146.88;;;55.30;;
32469;SDS011;18925;48.356;10.864;2022-12-18T00:18:57;147.43;;;58.35;;
32469;SDS011;18925;48.356;10.864;2022-12-18T00:19:27;133.93;;;56.75;;
32469;SDS011;18925;48.356;10.864;2022-12-18T00:19:58;147.80;;;55.92;;
32469;SDS011;18925;48.356;10.864;2022-12-18T00:20:29;145.75;;;57.03;;
32469;SDS011;18925;48.356;10.864;2022-12-18T00:21:00;135.90;;;57.70;;
32469;SDS011;18925;48.356;10.864;2022-12-18T00:21:33;145.13;;;57.42;;
32469;SDS011;18925;48.356;10.864;2022-12-18T00:22:04;139.20;;;55.65;;
32469;SDS011;18925;48.356;10.864;2022-12-18T00:22:36;150.98;;;59.28;;
32469;SDS011;18925;48.356;10.864;2022-12-18T00:23:07;149.93;;;59.33;;
32469;SDS011;18925;48.356;10.864;2022-12-18T00:23:38;137.68;;;58.38;;
32469;SDS011;18925;48.356;10.864;2022-12-18T00:24:10;153.55;;;59.55;;
32469;SDS011;18925;48.356;10.864;2022-12-18T00:24:41;142.52;;;56.47;;
32469;SDS011;18925;48.356;10.864;2022-12-18T00:25:11;139.85;;;56.85;;
32469;SDS011;18925;48.356;10.864;2022-12-18T00:25:42;153.18;;;60.03;;
32469;SDS011;18925;48.356;10.864;2022-12-18T00:26:14;151.68;;;59.30;;
32469;SDS011;18925;48.356;10.864;2022-12-18T00:26:52;115.88;;;45.45;;
32469;SDS011;18925;48.356;10.864;2022-12-18T00:27:23;139.48;;;56.47;;
32469;SDS011;18925;48.356;10.864;2022-12-18T00:27:54;144.68;;;57.90;;
32469;SDS011;18925;48.356;10.864;2022-12-18T00:28:24;144.85;;;58.00;;
32469;SDS011;18925;48.356;10.864;2022-12-18T00:28:57;135.20;;;59.28;;
32469;SDS011;18925;48.356;10.864;2022-12-18T00:29:29;140.35;;;58.92;;
32469;SDS011;18925;48.356;10.864;2022-12-18T00:30:00;141.40;;;56.90;;
32469;SDS011;18925;48.356;10.864;2022-12-18T00:30:30;145.50;;;57.15;;
32469;SDS011;18925;48.356;10.864;2022-12-18T00:31:02;147.32;;;57.42;;
32469;SDS011;18925;48.356;10.864;2022-12-18T00:31:34;136.35;;;55.28;;
32469;SDS011;18925;48.356;10.864;2022-12-18T00:32:05;146.73;;;58.53;;
32469;SDS011;18925;48.356;10.864;2022-12-18T00:32:36;147.00;;;56.72;;
32469;SDS011;18925;48.356;10.864;2022-12-18T00:33:07;146.40;;;56.40;;
32469;SDS011;18925;48.356;10.864;2022-12-18T00:33:38;125.95;;;55.45;;
32469;SDS011;18925;48.356;10.864;2022-12-18T00:34:09;147.10;;;55.33;;
32469;SDS011;18925;48.356;10.864;2022-12-18T00:34:41;129.20;;;53.30;;
32469;SDS011;18925;48.356;10.864;2022-12-18T00:35:12;137.60;;;54.20;;
32469;SDS011;18925;48.356;10.864;2022-12-18T00:35:43;123.90;;;55.28;;
32469;SDS011;18925;48.356;10.864;2022-12-18T00:36:14;143.98;;;56.85;;
32469;SDS011;18925;48.356;10.864;2022-12-18T00:36:48;140.68;;;55.63;;
32469;SDS011;18925;48.356;10.864;2022-12-18T00:37:18;137.10;;;55.97;;
32469;SDS011;18925;48.356;10.864;2022-12-18T00:37:49;138.18;;;54.65;;
32469;SDS011;18925;48.356;10.864;2022-12-18T00:38:20;126.47;;;54.60;;
32469;SDS011;18925;48.356;10.864;2022-12-18T00:38:50;119.50;;;52.35;;
32469;SDS011;18925;48.356;10.864;2022-12-18T00:39:22;122.15;;;53.25;;
32469;SDS011;18925;48.356;10.864;2022-12-18T00:39:53;145.70;;;54.45;;
32469;SDS011;18925;48.356;10.864;2022-12-18T00:40:24;124.13;;;53.17;;
32469;SDS011;18925;48.356;10.864;2022-12-18T00:40:54;119.90;;;52.38;;
32469;SDS011;18925;48.356;10.864;2022-12-18T00:41:25;123.18;;;52.97;;
32469;SDS011;18925;48.356;10.864;2022-12-18T00:42:15;129.80;;;52.55;;
32469;SDS011;18925;48.356;10.864;2022-12-18T00:43:04;120.80;;;49.78;;
32469;SDS011;18925;48.356;10.864;2022-12-18T00:43:35;121.78;;;51.83;;
32469;SDS011;18925;48.356;10.864;2022-12-18T00:44:07;130.52;;;54.50;;
32469;SDS011;18925;48.356;10.864;2022-12-18T00:44:40;125.57;;;52.65;;
32469;SDS011;18925;48.356;10.864;2022-12-18T00:45:11;134.70;;;54.83;;
32469;SDS011;18925;48.356;10.864;2022-12-18T00:45:41;127.55;;;50.53;;
32469;SDS011;18925;48.356;10.864;2022-12-18T00:46:12;116.35;;;49.28;;
32469;SDS011;18925;48.356;10.864;2022-12-18T00:46:43;121.82;;;52.25;;
32469;SDS011;18925;48.356;10.864;2022-12-18T00:47:14;121.88;;;51.85;;
32469;SDS011;18925;48.356;10.864;2022-12-18T00:47:45;118.22;;;49.88;;
32469;SDS011;18925;48.356;10.864;2022-12-18T00:48:16;120.72;;;49.50;;
32469;SDS011;18925;48.356;10.864;2022-12-18T00:48:47;116.65;;;48.90;;
32469;SDS011;18925;48.356;10.864;2022-12-18T00:49:18;117.57;;;47.25;;
32469;SDS011;18925;48.356;10.864;2022-12-18T00:49:49;115.78;;;47.47;;
32469;SDS011;18925;48.356;10.864;2022-12-18T00:50:20;104.38;;;45.67;;
32469;SDS011;18925;48.356;10.864;2022-12-18T00:50:52;104.97;;;46.20;;
32469;SDS011;18925;48.356;10.864;2022-12-18T00:51:23;101.93;;;45.42;;
32469;SDS011;18925;48.356;10.864;2022-12-18T00:51:55;108.75;;;46.88;;
32469;SDS011;18925;48.356;10.864;2022-12-18T00:52:26;109.18;;;46.75;;
32469;SDS011;18925;48.356;10.864;2022-12-18T00:52:56;119.32;;;48.15;;
32469;SDS011;18925;48.356;10.864;2022-12-18T00:53:27;114.07;;;48.42;;
32469;SDS011;18925;48.356;10.864;2022-12-18T00:53:58;110.55;;;47.05;;
32469;SDS011;18925;48.356;10.864;2022-12-18T00:54:28;108.35;;;48.33;;
32469;SDS011;18925;48.356;10.864;2022-12-18T00:54:59;124.80;;;50.78;;
32469;SDS011;18925;48.356;10.864;2022-12-18T00:55:30;116.43;;;49.90;;
32469;SDS011;18925;48.356;10.864;2022-12-18T00:56:02;115.15;;;50.17;;
32469;SDS011;18925;48.356;10.864;2022-12-18T00:56:32;117.00;;;50.00;;
32469;SDS011;18925;48.356;10.864;2022-12-18T00:57:06;111.13;;;48.03;;
32469;SDS011;18925;48.356;10.864;2022-12-18T00:57:37;121.65;;;50.97;;
32469;SDS011;18925;48.356;10.864;2022-12-18T00:58:09;125.75;;;50.58;;
32469;SDS011;18925;48.356;10.864;2022-12-18T00:58:40;118.28;;;47.60;;
32469;SDS011;18925;48.356;10.864;2022-12-18T00:59:10;115.15;;;49.60;;
32469;SDS011;18925;48.356;10.864;2022-12-18T00:59:41;130.73;;;51.35;;
32469;SDS011;18925;48.356;10.864;2022-12-18T01:00:13;107.95;;;49.13;;
32469;SDS011;18925;48.356;10.864;2022-12-18T01:00:44;107.07;;;46.00;;
32469;SDS011;18925;48.356;10.864;2022-12-18T01:01:15;115.95;;;46.88;;
32469;SDS011;18925;48.356;10.864;2022-12-18T01:01:46;123.22;;;52.10;;
32469;SDS011;18925;48.356;10.864;2022-12-18T01:02:17;126.93;;;50.13;;
32469;SDS011;18925;48.356;10.864;2022-12-18T01:02:48;121.85;;;50.15;;
32469;SDS011;18925;48.356;10.864;2022-12-18T01:03:19;120.70;;;49.83;;
32469;SDS011;18925;48.356;10.864;2022-12-18T01:03:50;114.72;;;48.75;;
32469;SDS011;18925;48.356;10.864;2022-12-18T01:04:20;119.60;;;50.92;;
32469;SDS011;18925;48.356;10.864;2022-12-18T01:04:51;111.90;;;49.72;;
32469;SDS011;18925;48.356;10.864;2022-12-18T01:05:22;124.47;;;50.38;;
32469;SDS011;18925;48.356;10.864;2022-12-18T01:05:52;128.40;;;52.13;;
32469;SDS011;18925;48.356;10.864;2022-12-18T01:06:23;118.40;;;49.38;;
32469;SDS011;18925;48.356;10.864;2022-12-18T01:06:54;130.48;;;53.55;;
32469;SDS011;18925;48.356;10.864;2022-12-18T01:07:24;113.40;;;50.92;;
32469;SDS011;18925;48.356;10.864;2022-12-18T01:07:55;128.93;;;52.88;;
32469;SDS011;18925;48.356;10.864;2022-12-18T01:08:26;135.13;;;55.17;;
32469;SDS011;18925;48.356;10.864;2022-12-18T01:08:57;149.00;;;55.53;;
32469;SDS011;18925;48.356;10.864;2022-12-18T01:09:28;143.13;;;53.42;;
32469;SDS011;18925;48.356;10.864;2022-12-18T01:09:58;132.07;;;51.72;;
32469;SDS011;18925;48.356;10.864;2022-12-18T01:10:29;130.75;;;50.50;;
32469;SDS011;18925;48.356;10.864;2022-12-18T01:11:00;131.75;;;50.78;;
32469;SDS011;18925;48.356;10.864;2022-12-18T01:11:31;131.07;;;51.40;;
32469;SDS011;18925;48.356;10.864;2022-12-18T01:12:02;127.82;;;51.70;;
32469;SDS011;18925;48.356;10.864;2022-12-18T01:12:33;133.73;;;52.85;;
32469;SDS011;18925;48.356;10.864;2022-12-18T01:13:04;116.20;;;50.15;;
32469;SDS011;18925;48.356;10.864;2022-12-18T01:13:34;124.32;;;51.83;;
32469;SDS011;18925;48.356;10.864;2022-12-18T01:14:05;125.53;;;51.22;;
32469;SDS011;18925;48.356;10.864;2022-12-18T01:14:36;124.40;;;50.72;;
32469;SDS011;18925;48.356;10.864;2022-12-18T01:15:09;121.95;;;50.55;;
32469;SDS011;18925;48.356;10.864;2022-12-18T01:15:47;127.93;;;53.03;;
32469;SDS011;18925;48.356;10.864;2022-12-18T01:16:21;113.20;;;49.95;;
32469;SDS011;18925;48.356;10.864;2022-12-18T01:16:52;126.45;;;50.72;;
32469;SDS011;18925;48.356;10.864;2022-12-18T01:17:22;123.60;;;49.47;;
32469;SDS011;18925;48.356;10.864;2022-12-18T01:17:53;136.32;;;50.17;;
32469;SDS011;18925;48.356;10.864;2022-12-18T01:18:24;109.50;;;48.80;;
32469;SDS011;18925;48.356;10.864;2022-12-18T01:18:54;108.28;;;45.58;;
32469;SDS011;18925;48.356;10.864;2022-12-18T01:19:25;128.73;;;47.13;;
32469;SDS011;18925;48.356;10.864;2022-12-18T01:19:56;110.28;;;47.08;;
32469;SDS011;18925;48.356;10.864;2022-12-18T01:20:26;126.07;;;48.53;;
32469;SDS011;18925;48.356;10.864;2022-12-18T01:20:57;123.30;;;49.63;;
32469;SDS011;18925;48.356;10.864;2022-12-18T01:21:28;113.45;;;48.70;;
32469;SDS011;18925;48.356;10.864;2022-12-18T01:21:59;139.10;;;51.75;;
32469;SDS011;18925;48.356;10.864;2022-12-18T01:22:29;128.63;;;52.80;;
32469;SDS011;18925;48.356;10.864;2022-12-18T01:23:00;140.52;;;51.90;;
32469;SDS011;18925;48.356;10.864;2022-12-18T01:23:31;124.10;;;51.85;;
32469;SDS011;18925;48.356;10.864;2022-12-18T01:24:01;133.88;;;53.67;;
32469;SDS011;18925;48.356;10.864;2022-12-18T01:24:32;133.40;;;51.60;;
32469;SDS011;18925;48.356;10.864;2022-12-18T01:25:03;138.85;;;56.95;;
32469;SDS011;18925;48.356;10.864;2022-12-18T01:25:35;135.95;;;54.47;;
32469;SDS011;18925;48.356;10.864;2022-12-18T01:26:07;127.28;;;52.42;;
32469;SDS011;18925;48.356;10.864;2022-12-18T01:26:40;134.02;;;54.20;;
32469;SDS011;18925;48.356;10.864;2022-12-18T01:27:11;133.38;;;51.65;;
32469;SDS011;18925;48.356;10.864;2022-12-18T01:27:41;136.38;;;52.38;;
32469;SDS011;18925;48.356;10.864;2022-12-18T01:28:12;143.07;;;55.35;;
32469;SDS011;18925;48.356;10.864;2022-12-18T01:28:43;143.73;;;53.30;;
32469;SDS011;18925;48.356;10.864;2022-12-18T01:29:14;159.55;;;56.97;;
32469;SDS011;18925;48.356;10.864;2022-12-18T01:29:45;139.15;;;54.22;;
32469;SDS011;18925;48.356;10.864;2022-12-18T01:30:15;152.40;;;55.38;;
32469;SDS011;18925;48.356;10.864;2022-12-18T01:30:46;136.27;;;55.38;;
32469;SDS011;18925;48.356;10.864;2022-12-18T01:31:18;152.40;;;57.58;;
32469;SDS011;18925;48.356;10.864;2022-12-18T01:31:50;141.60;;;55.67;;
32469;SDS011;18925;48.356;10.864;2022-12-18T01:32:21;139.07;;;53.50;;
32469;SDS011;18925;48.356;10.864;2022-12-18T01:32:52;165.38;;;57.95;;
32469;SDS011;18925;48.356;10.864;2022-12-18T01:33:23;145.25;;;55.60;;
32469;SDS011;18925;48.356;10.864;2022-12-18T01:33:54;143.35;;;56.58;;
32469;SDS011;18925;48.356;10.864;2022-12-18T01:34:25;154.05;;;59.00;;
32469;SDS011;18925;48.356;10.864;2022-12-18T01:34:56;165.32;;;59.08;;
32469;SDS011;18925;48.356;10.864;2022-12-18T01:35:27;154.00;;;57.25;;
32469;SDS011;18925;48.356;10.864;2022-12-18T01:35:57;156.45;;;57.47;;
32469;SDS011;18925;48.356;10.864;2022-12-18T01:36:29;133.98;;;56.80;;
32469;SDS011;18925;48.356;10.864;2022-12-18T01:37:02;152.85;;;57.85;;
32469;SDS011;18925;48.356;10.864;2022-12-18T01:37:33;143.18;;;56.30;;
32469;SDS011;18925;48.356;10.864;2022-12-18T01:38:04;141.95;;;57.15;;
32469;SDS011;18925;48.356;10.864;2022-12-18T01:38:35;150.02;;;57.60;;
32469;SDS011;18925;48.356;10.864;2022-12-18T01:39:07;146.43;;;56.97;;
32469;SDS011;18925;48.356;10.864;2022-12-18T01:39:41;134.52;;;55.75;;
32469;SDS011;18925;48.356;10.864;2022-12-18T01:40:12;146.55;;;57.05;;
32469;SDS011;18925;48.356;10.864;2022-12-18T01:40:42;144.10;;;57.47;;
32469;SDS011;18925;48.356;10.864;2022-12-18T01:41:14;155.50;;;55.78;;
32469;SDS011;18925;48.356;10.864;2022-12-18T01:41:46;149.95;;;56.45;;
32469;SDS011;18925;48.356;10.864;2022-12-18T01:42:35;129.75;;;52.72;;
32469;SDS011;18925;48.356;10.864;2022-12-18T01:43:08;130.90;;;53.55;;
32469;SDS011;18925;48.356;10.864;2022-12-18T01:43:49;146.70;;;55.42;;
32469;SDS011;18925;48.356;10.864;2022-12-18T01:45:27;138.50;;;53.53;;
32469;SDS011;18925;48.356;10.864;2022-12-18T01:45:59;151.68;;;56.45;;
32469;SDS011;18925;48.356;10.864;2022-12-18T01:46:30;156.18;;;57.35;;
32469;SDS011;18925;48.356;10.864;2022-12-18T01:47:01;159.80;;;58.17;;
32469;SDS011;18925;48.356;10.864;2022-12-18T01:47:33;156.63;;;57.13;;
32469;SDS011;18925;48.356;10.864;2022-12-18T01:48:13;147.98;;;56.20;;
32469;SDS011;18925;48.356;10.864;2022-12-18T01:48:46;157.85;;;57.92;;
32469;SDS011;18925;48.356;10.864;2022-12-18T01:49:18;159.15;;;59.33;;
32469;SDS011;18925;48.356;10.864;2022-12-18T01:49:49;159.10;;;58.38;;
32469;SDS011;18925;48.356;10.864;2022-12-18T01:50:57;164.60;;;58.33;;
32469;SDS011;18925;48.356;10.864;2022-12-18T01:51:28;170.43;;;58.67;;
32469;SDS011;18925;48.356;10.864;2022-12-18T01:52:00;196.38;;;60.80;;
32469;SDS011;18925;48.356;10.864;2022-12-18T01:52:31;169.05;;;60.90;;
32469;SDS011;18925;48.356;10.864;2022-12-18T01:53:07;157.88;;;58.33;;
32469;SDS011;18925;48.356;10.864;2022-12-18T01:53:43;115.82;;;44.30;;
32469;SDS011;18925;48.356;10.864;2022-12-18T01:54:15;161.55;;;56.75;;
32469;SDS011;18925;48.356;10.864;2022-12-18T01:54:46;175.82;;;59.08;;
32469;SDS011;18925;48.356;10.864;2022-12-18T01:55:19;166.15;;;58.60;;
32469;SDS011;18925;48.356;10.864;2022-12-18T01:55:55;184.27;;;59.38;;
32469;SDS011;18925;48.356;10.864;2022-12-18T01:56:27;170.98;;;59.03;;
32469;SDS011;18925;48.356;10.864;2022-12-18T01:56:58;173.60;;;58.10;;
32469;SDS011;18925;48.356;10.864;2022-12-18T01:57:30;179.75;;;63.08;;
32469;SDS011;18925;48.356;10.864;2022-12-18T01:58:02;177.93;;;62.78;;
32469;SDS011;18925;48.356;10.864;2022-12-18T01:59:06;175.45;;;59.13;;
32469;SDS011;18925;48.356;10.864;2022-12-18T01:59:32;162.52;;;56.95;;
32469;SDS011;18925;48.356;10.864;2022-12-18T02:00:07;153.70;;;60.03;;
32469;SDS011;18925;48.356;10.864;2022-12-18T02:00:43;159.63;;;57.88;;
32469;SDS011;18925;48.356;10.864;2022-12-18T02:01:13;160.77;;;58.88;;
32469;SDS011;18925;48.356;10.864;2022-12-18T02:01:44;154.02;;;57.00;;
32469;SDS011;18925;48.356;10.864;2022-12-18T02:02:15;172.43;;;61.00;;
32469;SDS011;18925;48.356;10.864;2022-12-18T02:02:47;160.25;;;59.42;;
32469;SDS011;18925;48.356;10.864;2022-12-18T02:03:18;193.40;;;63.47;;
32469;SDS011;18925;48.356;10.864;2022-12-18T02:03:49;188.82;;;61.15;;
32469;SDS011;18925;48.356;10.864;2022-12-18T02:04:24;177.63;;;62.55;;
32469;SDS011;18925;48.356;10.864;2022-12-18T02:04:56;165.27;;;59.50;;
32469;SDS011;18925;48.356;10.864;2022-12-18T02:05:33;191.82;;;62.92;;
32469;SDS011;18925;48.356;10.864;2022-12-18T02:06:33;164.45;;;58.20;;
32469;SDS011;18925;48.356;10.864;2022-12-18T02:07:13;171.10;;;57.50;;
32469;SDS011;18925;48.356;10.864;2022-12-18T02:08:11;172.95;;;57.67;;
32469;SDS011;18925;48.356;10.864;2022-12-18T02:10:22;173.10;;;55.30;;
32469;SDS011;18925;48.356;10.864;2022-12-18T02:11:18;171.77;;;56.63;;
32469;SDS011;18925;48.356;10.864;2022-12-18T02:12:10;161.20;;;56.13;;
32469;SDS011;18925;48.356;10.864;2022-12-18T02:12:51;194.00;;;57.33;;
32469;SDS011;18925;48.356;10.864;2022-12-18T02:13:36;178.32;;;58.33;;
32469;SDS011;18925;48.356;10.864;2022-12-18T02:16:29;175.95;;;59.20;;
32469;SDS011;18925;48.356;10.864;2022-12-18T02:17:21;164.75;;;57.10;;
32469;SDS011;18925;48.356;10.864;2022-12-18T02:17:58;182.95;;;60.08;;
32469;SDS011;18925;48.356;10.864;2022-12-18T02:18:38;172.60;;;58.22;;
32469;SDS011;18925;48.356;10.864;2022-12-18T02:19:20;148.50;;;55.30;;
32469;SDS011;18925;48.356;10.864;2022-12-18T02:20:20;137.50;;;51.72;;
32469;SDS011;18925;48.356;10.864;2022-12-18T02:23:01;151.35;;;52.55;;
32469;SDS011;18925;48.356;10.864;2022-12-18T02:26:11;145.82;;;52.53;;
32469;SDS011;18925;48.356;10.864;2022-12-18T02:27:03;170.25;;;54.17;;
32469;SDS011;18925;48.356;10.864;2022-12-18T02:27:36;164.23;;;54.70;;
32469;SDS011;18925;48.356;10.864;2022-12-18T02:28:09;174.05;;;52.53;;
32469;SDS011;18925;48.356;10.864;2022-12-18T02:28:48;157.98;;;54.58;;
32469;SDS011;18925;48.356;10.864;2022-12-18T02:29:30;155.05;;;53.42;;
32469;SDS011;18925;48.356;10.864;2022-12-18T02:30:07;164.38;;;56.70;;
32469;SDS011;18925;48.356;10.864;2022-12-18T02:30:38;167.38;;;55.28;;
32469;SDS011;18925;48.356;10.864;2022-12-18T02:31:13;203.80;;;58.20;;
32469;SDS011;18925;48.356;10.864;2022-12-18T02:31:54;163.18;;;55.60;;
32469;SDS011;18925;48.356;10.864;2022-12-18T02:32:28;146.20;;;53.95;;
32469;SDS011;18925;48.356;10.864;2022-12-18T02:33:04;169.32;;;55.75;;
32469;SDS011;18925;48.356;10.864;2022-12-18T02:33:37;174.18;;;56.72;;
32469;SDS011;18925;48.356;10.864;2022-12-18T02:34:09;160.10;;;56.45;;
32469;SDS011;18925;48.356;10.864;2022-12-18T02:34:41;153.75;;;57.30;;
32469;SDS011;18925;48.356;10.864;2022-12-18T02:35:15;166.55;;;58.03;;
32469;SDS011;18925;48.356;10.864;2022-12-18T02:35:50;144.38;;;54.95;;
32469;SDS011;18925;48.356;10.864;2022-12-18T02:36:23;165.57;;;56.10;;
32469;SDS011;18925;48.356;10.864;2022-12-18T02:36:55;148.77;;;55.13;;
32469;SDS011;18925;48.356;10.864;2022-12-18T02:37:28;191.05;;;57.15;;
32469;SDS011;18925;48.356;10.864;2022-12-18T02:38:01;179.60;;;58.15;;
32469;SDS011;18925;48.356;10.864;2022-12-18T02:38:33;185.85;;;56.90;;
32469;SDS011;18925;48.356;10.864;2022-12-18T02:39:05;186.52;;;57.08;;
32469;SDS011;18925;48.356;10.864;2022-12-18T02:39:40;187.35;;;57.60;;
32469;SDS011;18925;48.356;10.864;2022-12-18T02:40:13;159.35;;;57.58;;
32469;SDS011;18925;48.356;10.864;2022-12-18T02:40:47;155.00;;;56.40;;
32469;SDS011;18925;48.356;10.864;2022-12-18T02:41:20;157.65;;;57.58;;
32469;SDS011;18925;48.356;10.864;2022-12-18T02:41:54;175.00;;;56.88;;
32469;SDS011;18925;48.356;10.864;2022-12-18T02:42:26;164.23;;;57.22;;
32469;SDS011;18925;48.356;10.864;2022-12-18T02:43:08;148.65;;;55.47;;
32469;SDS011;18925;48.356;10.864;2022-12-18T02:43:41;158.27;;;57.13;;
32469;SDS011;18925;48.356;10.864;2022-12-18T02:44:17;154.25;;;55.28;;
32469;SDS011;18925;48.356;10.864;2022-12-18T02:44:49;147.55;;;54.88;;
32469;SDS011;18925;48.356;10.864;2022-12-18T02:45:21;177.90;;;57.78;;
32469;SDS011;18925;48.356;10.864;2022-12-18T02:45:52;146.80;;;54.13;;
32469;SDS011;18925;48.356;10.864;2022-12-18T02:46:33;139.65;;;55.30;;
32469;SDS011;18925;48.356;10.864;2022-12-18T02:47:40;161.50;;;54.22;;
32469;SDS011;18925;48.356;10.864;2022-12-18T02:48:13;142.38;;;52.65;;
32469;SDS011;18925;48.356;10.864;2022-12-18T02:48:44;164.65;;;56.05;;
32469;SDS011;18925;48.356;10.864;2022-12-18T02:50:08;168.23;;;54.63;;
32469;SDS011;18925;48.356;10.864;2022-12-18T02:51:03;177.38;;;56.58;;
32469;SDS011;18925;48.356;10.864;2022-12-18T02:52:55;143.27;;;47.78;;
32469;SDS011;18925;48.356;10.864;2022-12-18T02:53:45;144.07;;;49.85;;
32469;SDS011;18925;48.356;10.864;2022-12-18T02:54:33;162.95;;;51.63;;
32469;SDS011;18925;48.356;10.864;2022-12-18T02:56:07;153.00;;;53.50;;
32469;SDS011;18925;48.356;10.864;2022-12-18T02:56:46;156.88;;;52.53;;
32469;SDS011;18925;48.356;10.864;2022-12-18T02:57:27;137.25;;;51.45;;
32469;SDS011;18925;48.356;10.864;2022-12-18T02:58:34;142.85;;;52.33;;
32469;SDS011;18925;48.356;10.864;2022-12-18T02:59:31;133.55;;;51.20;;
32469;SDS011;18925;48.356;10.864;2022-12-18T03:00:58;137.40;;;51.90;;
32469;SDS011;18925;48.356;10.864;2022-12-18T03:01:38;155.18;;;50.95;;
32469;SDS011;18925;48.356;10.864;2022-12-18T03:02:19;158.38;;;51.92;;
32469;SDS011;18925;48.356;10.864;2022-12-18T03:03:01;151.93;;;53.38;;
32469;SDS011;18925;48.356;10.864;2022-12-18T03:03:41;147.55;;;52.55;;
32469;SDS011;18925;48.356;10.864;2022-12-18T03:04:17;165.10;;;54.50;;
32469;SDS011;18925;48.356;10.864;2022-12-18T03:05:44;159.00;;;53.70;;
32469;SDS011;18925;48.356;10.864;2022-12-18T03:06:27;142.90;;;49.72;;
32469;SDS011;18925;48.356;10.864;2022-12-18T03:07:12;134.55;;;51.33;;
32469;SDS011;18925;48.356;10.864;2022-12-18T03:07:56;145.60;;;51.53;;
32469;SDS011;18925;48.356;10.864;2022-12-18T03:08:37;140.88;;;48.50;;
32469;SDS011;18925;48.356;10.864;2022-12-18T03:09:17;94.63;;;37.17;;
32469;SDS011;18925;48.356;10.864;2022-12-18T03:09:51;128.43;;;47.03;;
32469;SDS011;18925;48.356;10.864;2022-12-18T03:10:26;140.63;;;48.67;;
32469;SDS011;18925;48.356;10.864;2022-12-18T03:11:01;140.65;;;48.38;;
32469;SDS011;18925;48.356;10.864;2022-12-18T03:11:34;133.93;;;48.38;;
32469;SDS011;18925;48.356;10.864;2022-12-18T03:12:30;128.50;;;45.72;;
32469;SDS011;18925;48.356;10.864;2022-12-18T03:13:09;143.68;;;46.45;;
32469;SDS011;18925;48.356;10.864;2022-12-18T03:13:48;137.63;;;48.38;;
32469;SDS011;18925;48.356;10.864;2022-12-18T03:14:26;133.27;;;47.75;;
32469;SDS011;18925;48.356;10.864;2022-12-18T03:15:47;132.65;;;47.00;;
32469;SDS011;18925;48.356;10.864;2022-12-18T03:16:22;121.22;;;45.50;;
32469;SDS011;18925;48.356;10.864;2022-12-18T03:17:03;135.63;;;48.42;;
32469;SDS011;18925;48.356;10.864;2022-12-18T03:17:38;134.85;;;48.60;;
32469;SDS011;18925;48.356;10.864;2022-12-18T03:18:18;127.95;;;48.80;;
32469;SDS011;18925;48.356;10.864;2022-12-18T03:19:02;132.20;;;48.05;;
32469;SDS011;18925;48.356;10.864;2022-12-18T03:19:36;143.20;;;47.97;;
32469;SDS011;18925;48.356;10.864;2022-12-18T03:20:10;125.47;;;48.38;;
32469;SDS011;18925;48.356;10.864;2022-12-18T03:20:44;131.60;;;47.35;;
32469;SDS011;18925;48.356;10.864;2022-12-18T03:21:19;126.53;;;48.88;;
32469;SDS011;18925;48.356;10.864;2022-12-18T03:21:54;137.25;;;48.28;;
32469;SDS011;18925;48.356;10.864;2022-12-18T03:22:27;132.00;;;49.05;;
32469;SDS011;18925;48.356;10.864;2022-12-18T03:23:11;140.52;;;51.08;;
32469;SDS011;18925;48.356;10.864;2022-12-18T03:23:46;120.15;;;47.17;;
32469;SDS011;18925;48.356;10.864;2022-12-18T03:24:19;135.48;;;46.42;;
32469;SDS011;18925;48.356;10.864;2022-12-18T03:24:53;130.95;;;47.72;;
32469;SDS011;18925;48.356;10.864;2022-12-18T03:25:26;144.32;;;48.78;;
32469;SDS011;18925;48.356;10.864;2022-12-18T03:25:59;124.13;;;46.50;;
32469;SDS011;18925;48.356;10.864;2022-12-18T03:26:33;136.73;;;48.63;;
32469;SDS011;18925;48.356;10.864;2022-12-18T03:27:06;126.07;;;48.10;;
32469;SDS011;18925;48.356;10.864;2022-12-18T03:27:42;126.53;;;46.72;;
32469;SDS011;18925;48.356;10.864;2022-12-18T03:28:19;131.43;;;45.55;;
32469;SDS011;18925;48.356;10.864;2022-12-18T03:28:56;125.63;;;47.83;;